createdAt,value
2018-08-12T00:00:36.021Z,100539.00
2018-08-12T00:03:27.508Z,100536.00
2018-08-12T00:22:10.744Z,100536.00
2018-08-12T00:24:46.195Z,100539.00
2018-08-12T00:31:34.146Z,100540.00
2018-08-12T00:34:21.977Z,100531.00
2018-08-12T00:37:07.865Z,100526.00
2018-08-12T00:39:51.501Z,100526.00
2018-08-12T00:42:34.788Z,100530.00
2018-08-12T00:45:33.478Z,100533.00
2018-08-12T00:48:23.940Z,100526.00
2018-08-12T00:51:11.311Z,100530.00
2018-08-12T00:58:00.252Z,100522.00
2018-08-12T01:01:14.995Z,100529.00
2018-08-12T01:04:05.278Z,100527.00
2018-08-12T01:06:57.932Z,100535.00
2018-08-12T01:16:48.622Z,100528.00
2018-08-12T01:19:35.530Z,100528.00
2018-08-12T01:25:57.972Z,100528.00
2018-08-12T01:32:21.351Z,100527.00
2018-08-12T01:38:20.577Z,100524.00
2018-08-12T02:00:54.427Z,100521.00
2018-08-12T02:03:39.613Z,100519.00
2018-08-12T02:09:35.116Z,100525.00
2018-08-12T02:21:21.403Z,100509.00
2018-08-12T02:24:13.239Z,100518.00
2018-08-12T02:27:01.904Z,100513.00
2018-08-12T02:33:13.336Z,100514.00
2018-08-12T02:46:20.740Z,100521.00
2018-08-12T02:49:39.002Z,100516.00
2018-08-12T03:12:00.465Z,100492.00
2018-08-12T03:18:25.501Z,100484.00
2018-08-12T03:32:09.445Z,100469.00
2018-08-12T03:35:32.690Z,100465.00
2018-08-12T03:58:34.602Z,100468.00
2018-08-12T04:01:29.381Z,100460.00
2018-08-12T04:07:49.515Z,100465.00
2018-08-12T04:10:36.024Z,100464.00
2018-08-12T04:13:42.889Z,100465.00
2018-08-12T04:22:49.782Z,100464.00
2018-08-12T04:28:52.119Z,100461.00
2018-08-12T04:31:35.175Z,100461.00
2018-08-12T04:53:28.956Z,100456.00
2018-08-12T04:56:09.908Z,100454.00
2018-08-12T04:59:05.336Z,100447.00
2018-08-12T05:05:07.684Z,100447.00
2018-08-12T05:08:12.942Z,100455.00
2018-08-12T05:14:53.270Z,100457.00
2018-08-12T05:20:47.343Z,100458.00
2018-08-12T05:45:32.683Z,100425.00
2018-08-12T05:48:52.224Z,100429.00
2018-08-12T05:57:36.290Z,100420.00
2018-08-12T06:00:25.338Z,100414.00
2018-08-12T06:03:47.721Z,100406.00
2018-08-12T06:22:12.414Z,100385.00
2018-08-12T06:25:11.825Z,100382.00
2018-08-12T06:34:08.788Z,100375.00
2018-08-12T06:36:56.390Z,100369.00
2018-08-12T06:40:12.387Z,100363.00
2018-08-12T06:50:10.890Z,100358.00
2018-08-12T07:06:58.999Z,100350.00
2018-08-12T07:09:50.792Z,100339.00
2018-08-12T07:12:44.184Z,100339.00
2018-08-12T07:15:31.518Z,100340.00
2018-08-12T07:18:29.077Z,100331.00
2018-08-12T07:21:21.381Z,100333.00
2018-08-12T07:30:59.000Z,100319.00
2018-08-12T07:33:43.418Z,100321.00
2018-08-12T07:36:34.529Z,100322.00
2018-08-12T07:39:24.622Z,100313.00
2018-08-12T07:45:21.097Z,100304.00
2018-08-12T07:49:06.142Z,100305.00
2018-08-12T08:05:58.085Z,100294.00
2018-08-12T08:08:52.149Z,100287.00
2018-08-12T08:11:56.825Z,100288.00
2018-08-12T08:28:46.907Z,100270.00
2018-08-12T08:35:31.021Z,100265.00
2018-08-12T08:44:52.497Z,100261.00
2018-08-12T09:01:08.408Z,100249.00
2018-08-12T09:04:07.965Z,100247.00
2018-08-12T09:09:52.167Z,100242.00
2018-08-12T09:15:37.264Z,100221.00
2018-08-12T09:22:32.299Z,100219.00
2018-08-12T09:28:23.086Z,100213.00
2018-08-12T09:31:19.320Z,100218.00
2018-08-12T09:34:30.041Z,100214.00
2018-08-12T09:37:20.846Z,100212.00
2018-08-12T09:40:06.056Z,100209.00
2018-08-12T09:42:42.804Z,100208.00
2018-08-12T09:51:49.367Z,100197.00
2018-08-12T09:54:51.001Z,100191.00
2018-08-12T10:03:18.992Z,100187.00
2018-08-12T10:06:02.601Z,100174.00
2018-08-12T10:08:58.772Z,100170.00
2018-08-12T10:12:11.369Z,100163.00
2018-08-12T10:14:59.717Z,100154.00
2018-08-12T10:21:09.241Z,100150.00
2018-08-12T10:24:07.655Z,100145.00
2018-08-12T10:27:08.944Z,100145.00
2018-08-12T10:38:29.713Z,100131.00
2018-08-12T10:44:00.633Z,100115.00
2018-08-12T10:47:15.602Z,100125.00
2018-08-12T10:49:56.095Z,100121.00
2018-08-12T10:58:34.403Z,100117.00
2018-08-12T11:04:08.951Z,100115.00
2018-08-12T11:07:17.118Z,100097.00
2018-08-12T11:10:18.459Z,100100.00
2018-08-12T11:13:18.532Z,100100.00
2018-08-12T11:43:40.901Z,100069.00
2018-08-12T11:46:23.218Z,100064.00
2018-08-12T11:49:56.305Z,100056.00
2018-08-12T11:55:44.565Z,100043.00
2018-08-12T12:16:38.261Z,100022.00
2018-08-12T12:19:15.790Z,100020.00
2018-08-12T12:22:16.421Z,100008.00
2018-08-12T12:24:57.557Z,99998.00
2018-08-12T12:33:38.264Z,99995.00
2018-08-12T12:39:26.884Z,99980.00
2018-08-12T12:42:19.617Z,99982.00
2018-08-12T12:45:12.798Z,99980.00
2018-08-12T12:47:50.830Z,99973.00
2018-08-12T12:50:36.325Z,99968.00
2018-08-12T12:53:10.190Z,99969.00
2018-08-12T12:55:45.810Z,99967.00
2018-08-12T13:01:08.260Z,99947.00
2018-08-12T13:07:12.703Z,99939.00
2018-08-12T13:09:57.459Z,99947.00
2018-08-12T13:18:27.426Z,99928.00
2018-08-12T13:21:10.367Z,99918.00
2018-08-12T13:23:53.945Z,99912.00
2018-08-12T13:26:40.693Z,99905.00
2018-08-12T13:29:24.469Z,99910.00
2018-08-12T13:32:17.429Z,99902.00
2018-08-12T13:34:45.897Z,99894.00
2018-08-12T13:37:13.459Z,99894.00
2018-08-12T13:39:40.969Z,99881.00
2018-08-12T13:42:08.616Z,99886.00
2018-08-12T13:44:36.196Z,99886.00
2018-08-12T13:47:03.764Z,99873.00
2018-08-12T13:49:31.394Z,99876.00
2018-08-12T13:51:59.272Z,99876.00
2018-08-12T13:54:26.898Z,99872.00
2018-08-12T13:56:54.726Z,99869.00
2018-08-12T13:59:22.523Z,99862.00
2018-08-12T14:01:50.567Z,99865.00
2018-08-12T14:04:18.389Z,99859.00
2018-08-12T14:06:46.049Z,99860.00
2018-08-12T14:09:13.780Z,99847.00
2018-08-12T14:11:41.405Z,99848.00
2018-08-12T14:14:09.083Z,99841.00
2018-08-12T14:16:36.801Z,99837.00
2018-08-12T14:19:04.702Z,99828.00
2018-08-12T14:21:33.220Z,99825.00
2018-08-12T14:24:01.176Z,99824.00
2018-08-12T14:26:29.138Z,99821.00
2018-08-12T14:28:56.792Z,99817.00
2018-08-12T14:31:24.816Z,99811.00
2018-08-12T14:33:52.577Z,99804.00
2018-08-12T14:36:20.189Z,99803.00
2018-08-12T14:38:47.896Z,99808.00
2018-08-12T14:41:15.431Z,99796.00
2018-08-12T14:43:43.062Z,99797.00
2018-08-12T14:46:10.852Z,99787.00
2018-08-12T14:48:38.615Z,99785.00
2018-08-12T14:51:07.166Z,99778.00
2018-08-12T14:53:34.882Z,99770.00
2018-08-12T14:56:02.407Z,99767.00
2018-08-12T14:58:29.973Z,99769.00
2018-08-12T15:00:57.761Z,99769.00
2018-08-12T15:03:25.357Z,99765.00
2018-08-12T15:05:53.976Z,99770.00
2018-08-12T15:08:21.573Z,99764.00
2018-08-12T15:10:49.118Z,99760.00
2018-08-12T15:13:17.084Z,99757.00
2018-08-12T15:15:44.661Z,99753.00
2018-08-12T15:18:12.198Z,99749.00
2018-08-12T15:20:39.763Z,99747.00
2018-08-12T15:23:07.645Z,99741.00
2018-08-12T15:25:35.185Z,99736.00
2018-08-12T15:28:02.863Z,99740.00
2018-08-12T15:30:30.397Z,99737.00
2018-08-12T15:32:57.964Z,99734.00
2018-08-12T15:35:25.619Z,99729.00
2018-08-12T15:37:53.202Z,99722.00
2018-08-12T15:40:21.046Z,99722.00
2018-08-12T15:42:48.798Z,99716.00
2018-08-12T15:45:17.178Z,99720.00
2018-08-12T15:47:45.343Z,99717.00
2018-08-12T15:50:13.479Z,99713.00
2018-08-12T15:52:42.481Z,99712.00
2018-08-12T15:55:10.480Z,99712.00
2018-08-12T15:57:38.221Z,99707.00
2018-08-12T16:00:14.071Z,99708.00
2018-08-12T16:02:42.157Z,99709.00
2018-08-12T16:05:09.763Z,99709.00
2018-08-12T16:07:37.718Z,99712.00
2018-08-12T16:10:09.684Z,99705.00
2018-08-12T16:12:37.283Z,99708.00
2018-08-12T16:15:07.953Z,99706.00
2018-08-12T16:17:36.013Z,99700.00
2018-08-12T16:20:04.555Z,99690.00
2018-08-12T16:22:32.070Z,99684.00
2018-08-12T16:24:59.948Z,99690.00
2018-08-12T16:27:27.665Z,99682.00
2018-08-12T16:29:55.974Z,99679.00
2018-08-12T16:32:23.603Z,99675.00
2018-08-12T16:34:51.168Z,99669.00
2018-08-12T16:37:18.772Z,99667.00
2018-08-12T16:39:46.572Z,99661.00
2018-08-12T16:42:14.652Z,99659.00
2018-08-12T16:44:42.308Z,99660.00
2018-08-12T16:47:10.174Z,99657.00
2018-08-12T16:49:37.763Z,99656.00
2018-08-12T16:52:05.333Z,99650.00
2018-08-12T16:54:33.096Z,99651.00
2018-08-12T16:57:00.709Z,99646.00
2018-08-12T16:59:28.229Z,99645.00
2018-08-12T17:01:56.061Z,99640.00
2018-08-12T17:04:23.670Z,99639.00
2018-08-12T17:06:51.278Z,99637.00
2018-08-12T17:09:18.796Z,99636.00
2018-08-12T17:11:46.424Z,99632.00
2018-08-12T17:14:14.333Z,99626.00
2018-08-12T17:16:41.985Z,99627.00
2018-08-12T17:19:09.550Z,99626.00
2018-08-12T17:21:37.728Z,99618.00
2018-08-12T17:24:07.971Z,99618.00
2018-08-12T17:26:35.551Z,99618.00
2018-08-12T17:29:04.617Z,99623.00
2018-08-12T17:31:32.168Z,99621.00
2018-08-12T17:33:59.772Z,99618.00
2018-08-12T17:36:28.055Z,99614.00
2018-08-12T17:38:56.312Z,99615.00
2018-08-12T17:41:24.449Z,99609.00
2018-08-12T17:43:52.694Z,99608.00
2018-08-12T17:46:21.293Z,99601.00
2018-08-12T17:48:50.323Z,99603.00
2018-08-12T17:51:18.444Z,99601.00
2018-08-12T17:53:46.846Z,99603.00
2018-08-12T17:56:15.805Z,99601.00
2018-08-12T17:58:44.735Z,99606.00
2018-08-12T18:01:13.986Z,99602.00
2018-08-12T18:03:43.441Z,99601.00
2018-08-12T18:06:11.390Z,99600.00
2018-08-12T18:08:39.861Z,99604.00
2018-08-12T18:11:09.113Z,99600.00
2018-08-12T18:13:37.837Z,99605.00
2018-08-12T18:16:06.555Z,99605.00
2018-08-12T18:18:35.204Z,99603.00
2018-08-12T18:21:03.807Z,99600.00
2018-08-12T18:23:34.254Z,99601.00
2018-08-12T18:26:02.898Z,99597.00
2018-08-12T18:28:30.717Z,99604.00
2018-08-12T18:30:59.110Z,99598.00
2018-08-12T18:33:26.715Z,99602.00
2018-08-12T18:35:55.922Z,99603.00
2018-08-12T18:38:24.240Z,99599.00
2018-08-12T18:40:54.078Z,99604.00
2018-08-12T18:43:22.894Z,99603.00
2018-08-12T18:45:51.377Z,99615.00
2018-08-12T18:48:20.150Z,99611.00
2018-08-12T18:50:48.656Z,99612.00
2018-08-12T18:53:16.521Z,99615.00
2018-08-12T19:00:57.821Z,99610.00
2018-08-12T19:03:26.157Z,99607.00
2018-08-12T19:05:54.989Z,99605.00
2018-08-12T19:08:24.115Z,99602.00
2018-08-12T19:10:52.129Z,99604.00
2018-08-12T19:13:20.394Z,99599.00
2018-08-12T19:15:48.525Z,99597.00
2018-08-12T19:18:16.603Z,99591.00
2018-08-12T19:20:44.419Z,99591.00
2018-08-12T19:23:13.558Z,99593.00
2018-08-12T19:25:41.865Z,99595.00
2018-08-12T19:28:09.419Z,99596.00
2018-08-12T19:30:37.145Z,99591.00
2018-08-12T19:33:04.837Z,99590.00
2018-08-12T19:35:32.527Z,99589.00
2018-08-12T19:38:01.156Z,99586.00
2018-08-12T19:40:28.667Z,99592.00
2018-08-12T19:42:56.444Z,99589.00
2018-08-12T19:45:24.342Z,99587.00
2018-08-12T19:47:51.875Z,99587.00
2018-08-12T19:50:19.648Z,99589.00
2018-08-12T19:52:47.196Z,99591.00
2018-08-12T19:55:14.757Z,99590.00
2018-08-12T19:57:42.472Z,99582.00
2018-08-12T20:00:12.631Z,99584.00
2018-08-12T20:02:40.374Z,99584.00
2018-08-12T20:05:08.817Z,99581.00
2018-08-12T20:07:36.462Z,99581.00
2018-08-12T20:10:05.941Z,99581.00
2018-08-12T20:12:35.292Z,99575.00
2018-08-12T20:15:03.607Z,99579.00
2018-08-12T20:17:31.161Z,99574.00
2018-08-12T20:19:59.005Z,99578.00
2018-08-12T20:22:26.661Z,99580.00
2018-08-12T20:24:54.264Z,99577.00
2018-08-12T20:27:22.273Z,99581.00
2018-08-12T20:29:49.916Z,99585.00
2018-08-12T20:32:17.590Z,99579.00
2018-08-12T20:34:45.541Z,99581.00
2018-08-12T20:37:13.369Z,99583.00
2018-08-12T20:39:40.901Z,99586.00
2018-08-12T20:42:08.595Z,99588.00
2018-08-12T20:44:36.163Z,99583.00
2018-08-12T20:47:03.963Z,99583.00
2018-08-12T20:49:32.334Z,99584.00
2018-08-12T20:52:00.085Z,99582.00
2018-08-12T20:54:28.833Z,99577.00
2018-08-12T20:56:56.489Z,99575.00
2018-08-12T20:59:24.584Z,99573.00
2018-08-12T21:01:52.423Z,99579.00
2018-08-12T21:04:20.022Z,99587.00
2018-08-12T21:06:48.073Z,99581.00
2018-08-12T21:09:15.714Z,99583.00
2018-08-12T21:11:43.523Z,99578.00
2018-08-12T21:14:11.103Z,99578.00
2018-08-12T21:16:38.737Z,99574.00
2018-08-12T21:19:06.513Z,99571.00
2018-08-12T21:21:34.115Z,99571.00
2018-08-12T21:24:01.805Z,99571.00
2018-08-12T21:26:29.856Z,99568.00
2018-08-12T21:28:57.674Z,99569.00
2018-08-12T21:31:25.203Z,99569.00
2018-08-12T21:34:04.084Z,99566.00
2018-08-12T21:36:31.632Z,99566.00
2018-08-12T21:38:59.211Z,99562.00
2018-08-12T21:41:26.750Z,99555.00
2018-08-12T21:43:54.443Z,99553.00
2018-08-12T21:46:22.214Z,99546.00
2018-08-12T21:48:50.205Z,99550.00
2018-08-12T21:51:17.783Z,99549.00
2018-08-12T21:53:45.316Z,99555.00
2018-08-12T21:56:14.408Z,99555.00
2018-08-12T21:58:42.052Z,99556.00
2018-08-12T22:01:09.694Z,99555.00
2018-08-12T22:03:37.455Z,99551.00
2018-08-12T22:06:05.339Z,99550.00
2018-08-12T22:08:33.069Z,99550.00
2018-08-12T22:11:00.671Z,99547.00
2018-08-12T22:13:28.229Z,99550.00
2018-08-12T22:15:56.097Z,99549.00
2018-08-12T22:18:23.709Z,99548.00
2018-08-12T22:20:51.348Z,99544.00
2018-08-12T22:23:19.173Z,99544.00
2018-08-12T22:25:47.749Z,99544.00
2018-08-12T22:28:15.410Z,99541.00
2018-08-12T22:30:43.192Z,99538.00
2018-08-12T22:33:10.845Z,99537.00
2018-08-12T22:35:38.449Z,99537.00
2018-08-12T22:38:06.422Z,99539.00
2018-08-12T22:40:33.984Z,99535.00
2018-08-12T22:43:01.952Z,99534.00
2018-08-12T22:45:29.559Z,99533.00
2018-08-12T22:47:57.268Z,99527.00
2018-08-12T22:50:26.168Z,99522.00
2018-08-12T22:52:53.842Z,99524.00
2018-08-12T22:55:21.731Z,99522.00
2018-08-12T22:57:49.285Z,99521.00
2018-08-12T23:00:18.608Z,99517.00
2018-08-12T23:02:46.462Z,99516.00
2018-08-12T23:05:14.036Z,99515.00
2018-08-12T23:07:41.621Z,99516.00
2018-08-12T23:10:09.643Z,99517.00
2018-08-12T23:12:37.088Z,99518.00
2018-08-12T23:15:22.474Z,99515.00
2018-08-12T23:17:50.160Z,99513.00
2018-08-12T23:20:17.683Z,99510.00
2018-08-12T23:22:45.274Z,99505.00
2018-08-12T23:25:19.783Z,99509.00
2018-08-12T23:27:47.324Z,99504.00
2018-08-12T23:30:15.047Z,99506.00
2018-08-12T23:32:42.641Z,99500.00
2018-08-12T23:35:10.260Z,99504.00
2018-08-12T23:37:38.040Z,99501.00
2018-08-12T23:40:06.280Z,99499.00
2018-08-12T23:42:33.816Z,99501.00
2018-08-12T23:45:01.582Z,99494.00
2018-08-12T23:47:29.130Z,99497.00
2018-08-12T23:49:56.698Z,99491.00
2018-08-12T23:52:24.478Z,99486.00
2018-08-12T23:54:52.125Z,99487.00
2018-08-12T23:57:19.677Z,99483.00
2018-08-12T23:59:47.275Z,99482.00
